Tetlin, Alaska
Current Conditions -  °F | °C
As of 6:53 PM on Tuesday 25 Nov 2014 (Local Time) from PAOR Reporting Station
Overcast Overcast  
Wind Chill: -2°   Ceiling: 4700
Heat Index: -2°   Visibility: 10mi
Dew Point: -7°   Wind: 3mph
Humidity: 79%   Direction: 100°E
Pressure: 30.25"   Gusts: NA
Location:  63.13°N, 142.52°W
Report Text: PAOR 260353Z 10003KT 10SM OVC047 M19/M22 A3025 RMK AO2 SNB17E27 SLP321 T11891217
Loading
Personal Weather Stations






























Interactive Weather Map New forecast layout! Learn more

10-Day Weather Forecast

Advertisements
Track Severe Weather on mobile